createdAt,value
2022-12-10T00:00:25.603Z,41.63
2022-12-10T00:02:33.334Z,40.42
2022-12-10T00:04:45.111Z,41.83
2022-12-10T00:06:55.857Z,43.92
2022-12-10T00:09:04.034Z,40.97
2022-12-10T00:11:17.540Z,45.28
2022-12-10T00:13:25.609Z,47.75
2022-12-10T00:15:33.454Z,42.00
2022-12-10T00:17:41.314Z,42.22
2022-12-10T00:19:50.253Z,42.38
2022-12-10T00:21:58.184Z,42.85
2022-12-10T00:24:07.439Z,45.00
2022-12-10T00:26:21.225Z,45.08
2022-12-10T00:28:30.062Z,43.10
2022-12-10T00:30:38.446Z,46.78
2022-12-10T00:32:46.539Z,43.40
2022-12-10T00:34:56.287Z,42.17
2022-12-10T00:37:04.108Z,44.75
2022-12-10T00:39:12.737Z,42.90
2022-12-10T00:41:24.581Z,43.72
2022-12-10T00:43:32.454Z,41.25
2022-12-10T00:45:40.678Z,41.25
2022-12-10T00:47:49.691Z,42.03
2022-12-10T00:49:58.047Z,41.38
2022-12-10T00:52:06.892Z,43.00
2022-12-10T00:54:15.066Z,41.05
2022-12-10T00:56:27.683Z,41.38
2022-12-10T00:58:36.900Z,43.08
2022-12-10T01:00:44.989Z,43.53
2022-12-10T01:02:52.892Z,42.42
2022-12-10T01:05:01.326Z,45.67
2022-12-10T01:07:11.445Z,43.15
2022-12-10T01:09:24.813Z,41.72
2022-12-10T01:11:39.432Z,43.40
2022-12-10T01:13:49.774Z,39.47
2022-12-10T01:15:57.700Z,44.35
2022-12-10T01:18:07.258Z,39.50
2022-12-10T01:20:17.109Z,46.45
2022-12-10T01:22:25.433Z,40.30
2022-12-10T01:24:33.620Z,43.55
2022-12-10T01:26:44.158Z,41.10
2022-12-10T01:28:52.866Z,44.70
2022-12-10T01:31:04.579Z,45.42
2022-12-10T01:33:13.740Z,39.55
2022-12-10T01:35:21.767Z,38.38
2022-12-10T01:37:30.676Z,40.90
2022-12-10T01:39:38.495Z,40.97
2022-12-10T01:41:51.615Z,40.15
2022-12-10T01:44:01.964Z,37.85
2022-12-10T01:46:11.282Z,40.33
2022-12-10T01:48:19.708Z,42.67
2022-12-10T01:50:28.758Z,39.88
2022-12-10T01:52:36.744Z,39.70
2022-12-10T01:54:47.702Z,42.60
2022-12-10T01:57:02.839Z,41.28
2022-12-10T01:59:10.926Z,37.47
2022-12-10T02:01:29.736Z,39.83
2022-12-10T02:03:46.229Z,44.28
2022-12-10T02:06:01.897Z,40.80
2022-12-10T02:08:16.997Z,40.50
2022-12-10T02:10:34.312Z,36.60
2022-12-10T02:12:51.112Z,40.97
2022-12-10T02:15:02.937Z,38.40
2022-12-10T02:17:17.247Z,41.75
2022-12-10T02:19:45.232Z,41.67
2022-12-10T02:21:57.254Z,42.30
2022-12-10T02:24:12.205Z,39.03
2022-12-10T02:26:26.949Z,43.60
2022-12-10T02:28:44.484Z,40.08
2022-12-10T02:30:57.911Z,39.00
2022-12-10T02:33:09.989Z,39.63
2022-12-10T02:35:23.729Z,36.30
2022-12-10T02:37:38.198Z,39.72
2022-12-10T02:39:50.269Z,42.70
2022-12-10T02:42:03.993Z,39.10
2022-12-10T02:44:17.692Z,40.20
2022-12-10T02:46:31.550Z,44.38
2022-12-10T02:48:44.844Z,36.67
2022-12-10T02:50:53.057Z,40.20
2022-12-10T02:53:01.098Z,38.60
2022-12-10T02:55:10.202Z,39.40
2022-12-10T02:57:40.487Z,40.10
2022-12-10T03:00:06.449Z,43.20
2022-12-10T03:02:33.438Z,38.10
2022-12-10T03:04:50.674Z,39.25
2022-12-10T03:07:05.705Z,42.40
2022-12-10T03:09:21.364Z,39.15
2022-12-10T03:11:30.526Z,39.85
2022-12-10T03:13:42.837Z,39.67
2022-12-10T03:15:53.671Z,42.40
2022-12-10T03:18:10.100Z,38.13
2022-12-10T03:20:20.388Z,37.08
2022-12-10T03:22:28.292Z,41.30
2022-12-10T03:24:39.077Z,38.47
2022-12-10T03:26:50.872Z,36.65
2022-12-10T03:29:05.439Z,36.78
2022-12-10T03:31:17.090Z,35.58
2022-12-10T03:33:27.832Z,37.10
2022-12-10T03:35:37.049Z,39.30
2022-12-10T03:37:45.341Z,41.85
2022-12-10T03:39:53.359Z,36.65
2022-12-10T03:42:02.366Z,39.60
2022-12-10T03:44:11.105Z,39.45
2022-12-10T03:46:18.911Z,40.85
2022-12-10T03:48:29.639Z,37.42
2022-12-10T03:50:37.766Z,39.15
2022-12-10T03:52:45.729Z,40.63
2022-12-10T03:54:53.537Z,41.10
2022-12-10T03:57:01.433Z,36.25
2022-12-10T03:59:09.314Z,40.22
2022-12-10T04:01:17.645Z,39.78
2022-12-10T04:03:25.489Z,40.42
2022-12-10T04:05:36.276Z,34.00
2022-12-10T04:07:44.384Z,36.53
2022-12-10T04:09:52.496Z,42.53
2022-12-10T04:12:02.237Z,37.10
2022-12-10T04:14:24.317Z,38.08
2022-12-10T04:16:31.558Z,37.38
2022-12-10T04:18:40.587Z,39.30
2022-12-10T04:21:03.651Z,33.55
2022-12-10T04:23:24.791Z,38.00
2022-12-10T04:25:45.003Z,36.45
2022-12-10T04:27:52.751Z,35.35
2022-12-10T04:30:01.956Z,38.85
2022-12-10T04:32:10.565Z,37.00
2022-12-10T04:34:18.397Z,37.10
2022-12-10T04:36:29.015Z,34.13
2022-12-10T04:38:37.117Z,35.40
2022-12-10T04:40:45.660Z,33.80
2022-12-10T04:42:53.994Z,35.00
2022-12-10T04:45:01.879Z,35.67
2022-12-10T04:47:11.447Z,37.80
2022-12-10T04:49:19.675Z,33.53
2022-12-10T04:51:30.582Z,36.22
2022-12-10T04:53:38.576Z,34.05
2022-12-10T04:55:48.203Z,37.28
2022-12-10T04:57:56.512Z,35.22
2022-12-10T05:00:04.381Z,36.08
2022-12-10T05:02:12.860Z,35.15
2022-12-10T05:04:21.283Z,34.35
2022-12-10T05:06:32.020Z,38.42
2022-12-10T05:08:42.078Z,34.60
2022-12-10T05:10:50.326Z,35.30
2022-12-10T05:12:58.128Z,35.03
2022-12-10T05:15:06.898Z,32.20
2022-12-10T05:17:15.094Z,32.92
2022-12-10T05:19:24.605Z,37.13
2022-12-10T05:21:47.640Z,37.15
2022-12-10T05:23:56.674Z,38.67
2022-12-10T05:26:05.892Z,35.88
2022-12-10T05:28:15.066Z,31.88
2022-12-10T05:30:23.055Z,33.42
2022-12-10T05:32:31.125Z,31.98
2022-12-10T05:34:39.227Z,33.70
2022-12-10T05:36:50.482Z,33.17
2022-12-10T05:39:01.436Z,35.05
2022-12-10T05:41:11.725Z,35.90
2022-12-10T05:43:20.244Z,34.00
2022-12-10T05:45:29.639Z,33.65
2022-12-10T05:47:37.363Z,35.30
2022-12-10T05:49:50.700Z,32.80
2022-12-10T05:52:02.894Z,35.50
2022-12-10T05:54:11.411Z,34.70
2022-12-10T05:56:22.107Z,32.88
2022-12-10T05:58:31.409Z,31.02
2022-12-10T06:00:39.304Z,37.20
2022-12-10T06:02:47.170Z,33.63
2022-12-10T06:04:55.444Z,37.00
2022-12-10T06:07:10.992Z,29.83
2022-12-10T06:09:20.421Z,33.63
2022-12-10T06:11:31.390Z,30.65
2022-12-10T06:13:42.162Z,31.98
2022-12-10T06:15:51.425Z,30.85
2022-12-10T06:17:59.634Z,32.70
2022-12-10T06:20:11.884Z,34.60
2022-12-10T06:22:22.888Z,31.40
2022-12-10T06:24:32.523Z,31.15
2022-12-10T06:26:40.512Z,33.88
2022-12-10T06:28:49.762Z,35.38
2022-12-10T06:30:57.605Z,34.67
2022-12-10T06:33:05.785Z,33.72
2022-12-10T06:35:15.180Z,33.58
2022-12-10T06:37:26.645Z,37.55
2022-12-10T06:39:35.481Z,33.10
2022-12-10T06:41:46.562Z,33.58
2022-12-10T06:43:54.732Z,36.47
2022-12-10T06:46:03.332Z,36.80
2022-12-10T06:48:12.230Z,31.98
2022-12-10T06:50:20.216Z,34.08
2022-12-10T06:52:32.211Z,43.58
2022-12-10T06:54:40.519Z,36.33
2022-12-10T06:56:48.529Z,38.17
2022-12-10T06:58:56.892Z,34.65
2022-12-10T07:01:09.334Z,35.20
2022-12-10T07:03:17.390Z,37.25
2022-12-10T07:05:25.560Z,33.53
2022-12-10T07:07:36.196Z,37.15
2022-12-10T07:09:43.956Z,32.72
2022-12-10T07:11:51.771Z,37.95
2022-12-10T07:14:00.995Z,37.47
2022-12-10T07:16:16.434Z,36.50
2022-12-10T07:18:24.864Z,31.83
2022-12-10T07:20:34.470Z,37.50
2022-12-10T07:22:44.868Z,36.60
2022-12-10T07:24:52.964Z,33.60
2022-12-10T07:27:01.082Z,35.42
2022-12-10T07:29:13.539Z,33.40
2022-12-10T07:31:21.637Z,34.83
2022-12-10T07:33:29.592Z,37.28
2022-12-10T07:35:37.524Z,33.30
2022-12-10T07:37:47.933Z,33.72
2022-12-10T07:39:56.827Z,34.15
2022-12-10T07:42:05.775Z,35.45
2022-12-10T07:44:15.469Z,38.10
2022-12-10T07:46:25.874Z,35.85
2022-12-10T07:48:33.682Z,32.05
2022-12-10T07:50:41.519Z,37.40
2022-12-10T07:52:52.000Z,36.55
2022-12-10T07:54:59.811Z,37.03
2022-12-10T07:57:08.954Z,37.45
2022-12-10T07:59:16.720Z,33.97
2022-12-10T08:01:27.237Z,34.38
2022-12-10T08:03:35.159Z,33.67
2022-12-10T08:05:43.470Z,30.77
2022-12-10T08:08:00.384Z,30.83
2022-12-10T08:10:11.175Z,35.97
2022-12-10T08:12:19.468Z,34.03
2022-12-10T08:14:28.882Z,33.92
2022-12-10T08:16:36.824Z,35.05
2022-12-10T08:18:45.180Z,33.60
2022-12-10T08:20:53.295Z,31.23
2022-12-10T08:23:03.973Z,35.80
2022-12-10T08:25:12.118Z,32.97
2022-12-10T08:27:20.004Z,36.40
2022-12-10T08:29:28.482Z,35.40
2022-12-10T08:31:38.192Z,36.47
2022-12-10T08:33:46.447Z,36.75
2022-12-10T08:35:54.602Z,33.15
2022-12-10T08:38:05.354Z,35.40
2022-12-10T08:40:14.615Z,33.00
2022-12-10T08:42:22.533Z,35.08
2022-12-10T08:44:31.385Z,31.00
2022-12-10T08:46:39.315Z,32.92
2022-12-10T08:48:47.623Z,29.20
2022-12-10T08:50:55.770Z,33.63
2022-12-10T08:53:07.918Z,32.13
2022-12-10T08:55:16.856Z,35.70
2022-12-10T08:57:24.689Z,29.35
2022-12-10T08:59:32.766Z,31.27
2022-12-10T09:01:40.613Z,33.88
2022-12-10T09:03:51.133Z,35.03
2022-12-10T09:05:58.893Z,31.20
2022-12-10T09:08:10.191Z,33.22
2022-12-10T09:10:18.474Z,28.38
2022-12-10T09:12:27.079Z,31.77
2022-12-10T09:14:35.995Z,36.40
2022-12-10T09:16:44.195Z,31.10
2022-12-10T09:18:54.330Z,30.33
2022-12-10T09:21:03.915Z,33.95
2022-12-10T09:23:15.877Z,34.25
2022-12-10T09:25:24.005Z,34.85
2022-12-10T09:27:32.302Z,29.48
2022-12-10T09:29:40.710Z,32.20
2022-12-10T09:31:48.656Z,31.88
2022-12-10T09:33:58.161Z,31.75
2022-12-10T09:36:08.219Z,32.28
2022-12-10T09:38:18.950Z,30.65
2022-12-10T09:40:37.538Z,29.92
2022-12-10T09:42:55.235Z,31.95
2022-12-10T09:45:09.273Z,28.50
2022-12-10T09:47:17.575Z,33.25
2022-12-10T09:49:37.492Z,30.30
2022-12-10T09:51:45.388Z,31.38
2022-12-10T09:53:59.712Z,33.65
2022-12-10T09:56:09.572Z,32.33
2022-12-10T09:58:26.218Z,29.95
2022-12-10T10:00:41.013Z,30.02
2022-12-10T10:02:49.692Z,32.85
2022-12-10T10:05:14.128Z,33.28
2022-12-10T10:07:25.739Z,32.95
2022-12-10T10:09:43.704Z,32.78
2022-12-10T10:11:52.530Z,27.75
2022-12-10T10:14:03.800Z,29.27
2022-12-10T10:16:30.486Z,32.60
2022-12-10T10:18:43.711Z,31.60
2022-12-10T10:20:52.617Z,29.88
2022-12-10T10:23:03.901Z,32.58
2022-12-10T10:25:18.546Z,33.67
2022-12-10T10:27:33.157Z,33.45
2022-12-10T10:29:42.146Z,33.92
2022-12-10T10:31:52.083Z,33.90
2022-12-10T10:34:03.479Z,30.38
2022-12-10T10:36:13.026Z,33.47
2022-12-10T10:38:25.758Z,33.60
2022-12-10T10:40:44.976Z,29.10
2022-12-10T10:42:56.551Z,32.65
2022-12-10T10:45:06.601Z,31.27
2022-12-10T10:47:34.356Z,33.30
2022-12-10T10:49:48.497Z,33.47
2022-12-10T10:51:58.108Z,31.25
2022-12-10T10:54:08.479Z,29.33
2022-12-10T10:56:23.733Z,33.33
2022-12-10T10:58:32.412Z,30.38
2022-12-10T11:00:40.585Z,31.13
2022-12-10T11:02:49.825Z,29.15
2022-12-10T11:05:00.225Z,30.00
2022-12-10T11:07:17.492Z,29.65
2022-12-10T11:09:31.948Z,28.92
2022-12-10T11:11:45.273Z,30.92
2022-12-10T11:13:53.631Z,30.08
2022-12-10T11:16:05.594Z,33.42
2022-12-10T11:18:29.856Z,29.88
2022-12-10T11:20:42.393Z,30.67
2022-12-10T11:22:55.581Z,33.13
2022-12-10T11:25:04.980Z,29.05
2022-12-10T11:27:21.345Z,28.75
2022-12-10T11:29:45.833Z,29.83
2022-12-10T11:32:14.928Z,27.92
2022-12-10T11:34:30.378Z,27.60
2022-12-10T11:36:44.995Z,29.38
2022-12-10T11:39:06.758Z,27.45
2022-12-10T11:41:22.225Z,26.33
2022-12-10T11:43:49.033Z,29.85
2022-12-10T11:46:26.293Z,29.17
2022-12-10T11:48:48.017Z,34.88
2022-12-10T11:51:02.026Z,34.00
2022-12-10T11:53:29.601Z,32.92
2022-12-10T11:55:57.013Z,31.38
2022-12-10T11:58:27.097Z,34.70
2022-12-10T12:00:45.262Z,34.08
2022-12-10T12:03:21.776Z,29.50
2022-12-10T12:05:44.688Z,32.55
2022-12-10T12:08:04.174Z,30.13
2022-12-10T12:10:53.384Z,29.00
2022-12-10T12:13:05.039Z,29.83
2022-12-10T12:15:25.271Z,30.27
2022-12-10T12:17:42.043Z,31.40
2022-12-10T12:19:54.187Z,29.27
2022-12-10T12:22:14.230Z,33.50
2022-12-10T12:24:25.797Z,28.85
2022-12-10T12:26:38.925Z,30.10
2022-12-10T12:28:51.865Z,30.63
2022-12-10T12:31:06.084Z,27.55
2022-12-10T12:33:24.458Z,32.63
2022-12-10T12:35:41.698Z,34.72
2022-12-10T12:37:57.064Z,27.05
2022-12-10T12:40:14.713Z,30.80
2022-12-10T12:42:31.213Z,28.80
2022-12-10T12:44:50.321Z,31.05
2022-12-10T12:46:58.518Z,29.70
2022-12-10T12:49:16.689Z,31.45
2022-12-10T12:51:30.919Z,29.05
2022-12-10T12:53:42.733Z,28.58
2022-12-10T12:56:04.135Z,27.50
2022-12-10T12:58:27.167Z,25.55
2022-12-10T13:00:37.295Z,28.98
2022-12-10T13:02:57.753Z,26.63
2022-12-10T13:05:09.301Z,29.17
2022-12-10T13:07:33.167Z,25.65
2022-12-10T13:09:47.681Z,26.35
2022-12-10T13:12:30.151Z,25.05
2022-12-10T13:14:39.873Z,27.75
2022-12-10T13:16:54.196Z,25.27
2022-12-10T13:19:28.366Z,28.23
2022-12-10T13:21:39.135Z,24.73
2022-12-10T13:23:56.461Z,27.10
2022-12-10T13:26:05.601Z,25.80
2022-12-10T13:28:31.897Z,26.30
2022-12-10T13:30:40.276Z,26.15
2022-12-10T13:32:51.966Z,24.35
2022-12-10T13:35:26.989Z,26.15
2022-12-10T13:37:39.461Z,26.02
2022-12-10T13:39:52.803Z,25.23
2022-12-10T13:42:43.112Z,26.80
2022-12-10T13:44:52.704Z,26.73
2022-12-10T13:47:04.435Z,25.30
2022-12-10T13:49:23.577Z,27.40
2022-12-10T13:51:58.733Z,27.13
2022-12-10T13:54:23.838Z,23.63
2022-12-10T13:56:40.584Z,25.13
2022-12-10T13:58:54.787Z,21.50
2022-12-10T14:01:13.616Z,29.90
2022-12-10T14:03:48.878Z,25.95
2022-12-10T14:06:13.165Z,25.30
2022-12-10T14:08:26.131Z,29.30
2022-12-10T14:10:40.955Z,28.65
2022-12-10T14:12:49.893Z,26.40
2022-12-10T14:15:01.357Z,26.92
2022-12-10T14:17:13.690Z,31.55
2022-12-10T14:19:23.189Z,27.75
2022-12-10T14:21:35.998Z,24.40
2022-12-10T14:23:51.908Z,29.15
2022-12-10T14:26:11.088Z,29.00
2022-12-10T14:28:21.858Z,26.85
2022-12-10T14:30:32.003Z,28.40
2022-12-10T14:32:42.433Z,31.65
2022-12-10T14:34:55.648Z,31.55
2022-12-10T14:37:07.353Z,30.08
2022-12-10T14:39:19.672Z,33.67
2022-12-10T14:41:39.217Z,35.08
2022-12-10T14:43:48.913Z,30.90
2022-12-10T14:46:00.454Z,34.15
2022-12-10T14:48:10.526Z,31.02
2022-12-10T14:50:20.549Z,27.95
2022-12-10T14:52:36.570Z,33.03
2022-12-10T14:54:45.037Z,29.52
2022-12-10T14:56:58.489Z,27.08
2022-12-10T14:59:11.017Z,29.77
2022-12-10T15:01:24.942Z,28.48
2022-12-10T15:03:37.133Z,33.40
2022-12-10T15:05:46.305Z,32.28
2022-12-10T15:07:58.506Z,32.83
2022-12-10T15:10:15.218Z,29.27
2022-12-10T15:12:33.921Z,29.85
2022-12-10T15:14:41.958Z,31.02
2022-12-10T15:16:50.884Z,28.02
2022-12-10T15:18:59.401Z,31.30
2022-12-10T15:21:09.821Z,31.98
2022-12-10T15:23:23.646Z,29.45
2022-12-10T15:25:32.957Z,30.83
2022-12-10T15:27:43.338Z,30.60
2022-12-10T15:29:52.321Z,31.42
2022-12-10T15:32:03.880Z,29.20
2022-12-10T15:34:16.709Z,29.90
2022-12-10T15:36:31.592Z,31.00
2022-12-10T15:38:44.270Z,30.38
2022-12-10T15:40:52.124Z,32.67
2022-12-10T15:43:17.311Z,32.33
2022-12-10T15:45:28.936Z,31.30
2022-12-10T15:47:39.625Z,36.05
2022-12-10T15:49:48.642Z,32.97
2022-12-10T15:51:56.679Z,29.38
2022-12-10T15:54:05.657Z,25.80
2022-12-10T15:56:13.560Z,32.20
2022-12-10T15:58:24.026Z,30.40
2022-12-10T16:00:31.776Z,32.17
2022-12-10T16:02:43.444Z,31.55
2022-12-10T16:04:52.374Z,29.98
2022-12-10T16:07:00.167Z,34.13
2022-12-10T16:09:08.311Z,30.27
2022-12-10T16:11:21.411Z,32.20
2022-12-10T16:13:36.054Z,32.60
2022-12-10T16:15:48.542Z,31.60
2022-12-10T16:17:59.304Z,33.15
2022-12-10T16:20:27.119Z,33.60
2022-12-10T16:22:34.836Z,32.80
2022-12-10T16:24:45.212Z,37.60
2022-12-10T16:26:53.448Z,31.73
2022-12-10T16:29:03.861Z,33.65
2022-12-10T16:31:14.856Z,32.58
2022-12-10T16:33:25.466Z,32.97
2022-12-10T16:35:34.687Z,31.80
2022-12-10T16:37:42.726Z,33.53
2022-12-10T16:39:54.493Z,31.13
2022-12-10T16:42:06.127Z,31.23
2022-12-10T16:44:16.571Z,32.78
2022-12-10T16:46:27.392Z,29.88
2022-12-10T16:48:35.326Z,28.90
2022-12-10T16:50:44.990Z,31.17
2022-12-10T16:52:54.369Z,29.15
2022-12-10T16:55:03.496Z,26.48
2022-12-10T16:57:14.944Z,26.75
2022-12-10T16:59:25.354Z,27.65
2022-12-10T17:01:36.358Z,31.58
2022-12-10T17:03:47.450Z,25.77
2022-12-10T17:05:58.321Z,34.67
2022-12-10T17:08:18.594Z,28.58
2022-12-10T17:10:47.272Z,30.83
2022-12-10T17:12:55.127Z,29.38
2022-12-10T17:15:11.557Z,32.80
2022-12-10T17:17:21.983Z,27.52
2022-12-10T17:19:31.461Z,34.45
2022-12-10T17:21:39.484Z,27.45
2022-12-10T17:23:47.795Z,27.83
2022-12-10T17:25:56.076Z,27.80
2022-12-10T17:28:05.418Z,29.60
2022-12-10T17:30:19.572Z,29.02
2022-12-10T17:32:27.509Z,26.83
2022-12-10T17:34:36.165Z,27.38
2022-12-10T17:36:45.193Z,28.55
2022-12-10T17:38:52.996Z,27.13
2022-12-10T17:41:00.811Z,30.38
2022-12-10T17:43:08.902Z,27.67
2022-12-10T17:45:22.764Z,29.58
2022-12-10T17:47:33.499Z,33.13
2022-12-10T17:49:41.904Z,29.77
2022-12-10T17:51:50.607Z,27.70
2022-12-10T17:53:58.944Z,29.70
2022-12-10T17:56:13.761Z,27.33
2022-12-10T17:58:24.299Z,28.90
2022-12-10T18:00:38.241Z,29.17
2022-12-10T18:02:47.005Z,28.33
2022-12-10T18:04:55.786Z,30.08
2022-12-10T18:07:07.685Z,31.70
2022-12-10T18:09:20.400Z,33.13
2022-12-10T18:11:33.897Z,33.00
2022-12-10T18:13:47.493Z,30.27
2022-12-10T18:15:58.968Z,34.03
2022-12-10T18:18:08.331Z,31.88
2022-12-10T18:20:25.407Z,29.33
2022-12-10T18:22:33.641Z,29.92
2022-12-10T18:24:43.092Z,33.63
2022-12-10T18:26:52.603Z,33.38
2022-12-10T18:29:02.652Z,29.73
2022-12-10T18:31:17.367Z,28.67
2022-12-10T18:33:26.257Z,29.20
2022-12-10T18:35:34.333Z,29.92
2022-12-10T18:37:43.001Z,30.52
2022-12-10T18:39:50.826Z,30.25
2022-12-10T18:41:59.460Z,32.13
2022-12-10T18:44:07.568Z,31.40
2022-12-10T18:46:21.335Z,32.25
2022-12-10T18:48:29.262Z,30.75
2022-12-10T18:50:38.638Z,30.80
2022-12-10T18:52:47.664Z,33.60
2022-12-10T18:54:55.560Z,32.70
2022-12-10T18:57:32.445Z,34.03
2022-12-10T18:59:32.615Z,36.65
2022-12-10T19:01:43.100Z,31.10
2022-12-10T19:03:51.267Z,33.83
2022-12-10T19:05:59.417Z,31.85
2022-12-10T19:08:08.293Z,33.22
2022-12-10T19:10:19.762Z,28.27
2022-12-10T19:12:27.615Z,32.38
2022-12-10T19:14:38.302Z,34.75
2022-12-10T19:16:50.178Z,33.15
2022-12-10T19:19:02.211Z,32.88
2022-12-10T19:21:11.862Z,31.60
2022-12-10T19:23:20.114Z,35.70
2022-12-10T19:25:29.296Z,31.17
2022-12-10T19:27:39.006Z,32.92
2022-12-10T19:29:47.616Z,33.55
2022-12-10T19:31:59.735Z,32.67
2022-12-10T19:34:08.301Z,31.55
2022-12-10T19:36:22.466Z,32.55
2022-12-10T19:38:30.999Z,30.55
2022-12-10T19:40:39.830Z,28.98
2022-12-10T19:42:47.741Z,32.63
2022-12-10T19:44:55.695Z,31.83
2022-12-10T19:47:06.266Z,33.85
2022-12-10T19:49:15.402Z,32.53
2022-12-10T19:51:24.782Z,31.92
2022-12-10T19:53:33.126Z,27.05
2022-12-10T19:55:40.944Z,30.58
2022-12-10T19:57:50.135Z,31.40
2022-12-10T19:59:58.549Z,32.47
2022-12-10T20:02:09.941Z,32.70
2022-12-10T20:04:20.453Z,26.63
2022-12-10T20:06:33.041Z,28.38
2022-12-10T20:08:41.541Z,30.35
2022-12-10T20:10:49.706Z,29.27
2022-12-10T20:12:57.734Z,31.15
2022-12-10T20:15:06.011Z,30.65
2022-12-10T20:17:20.440Z,32.03
2022-12-10T20:19:28.387Z,30.70
2022-12-10T20:21:36.616Z,30.77
2022-12-10T20:23:45.096Z,31.80
2022-12-10T20:25:53.421Z,30.88
2022-12-10T20:28:02.632Z,33.08
2022-12-10T20:30:11.796Z,31.13
2022-12-10T20:32:22.385Z,31.52
2022-12-10T20:34:30.691Z,32.75
2022-12-10T20:36:41.355Z,27.60
2022-12-10T20:38:49.502Z,30.25
2022-12-10T20:40:58.818Z,31.42
2022-12-10T20:43:06.717Z,29.48
2022-12-10T20:45:14.811Z,26.92
2022-12-10T20:47:25.613Z,29.38
2022-12-10T20:49:33.433Z,30.08
2022-12-10T20:51:41.940Z,29.67
2022-12-10T20:53:50.786Z,30.85
2022-12-10T20:55:59.147Z,29.05
2022-12-10T20:58:07.476Z,26.98
2022-12-10T21:00:21.986Z,33.85
2022-12-10T21:02:32.595Z,27.33
2022-12-10T21:04:41.316Z,31.60
2022-12-10T21:06:49.973Z,31.73
2022-12-10T21:08:59.514Z,27.42
2022-12-10T21:11:07.695Z,33.15
2022-12-10T21:13:16.057Z,26.83
2022-12-10T21:15:25.544Z,28.15
2022-12-10T21:17:37.684Z,26.13
2022-12-10T21:19:45.561Z,29.77
2022-12-10T21:21:53.634Z,30.75
2022-12-10T21:24:01.534Z,30.35
2022-12-10T21:26:09.456Z,31.73
2022-12-10T21:28:18.076Z,28.45
2022-12-10T21:30:25.877Z,33.60
2022-12-10T21:32:36.762Z,29.70
2022-12-10T21:34:45.972Z,29.55
2022-12-10T21:36:54.613Z,30.98
2022-12-10T21:39:03.135Z,31.30
2022-12-10T21:41:25.052Z,27.00
2022-12-10T21:43:33.432Z,23.73
2022-12-10T21:45:45.689Z,23.63
2022-12-10T21:48:02.537Z,27.70
2022-12-10T21:50:10.628Z,28.08
2022-12-10T21:52:18.818Z,27.88
2022-12-10T21:54:27.533Z,32.25
2022-12-10T21:56:35.466Z,28.65
2022-12-10T21:58:43.846Z,31.83
2022-12-10T22:00:59.761Z,27.77
2022-12-10T22:03:10.250Z,26.40
2022-12-10T22:05:22.411Z,26.50
2022-12-10T22:07:30.487Z,25.25
2022-12-10T22:09:38.545Z,28.90
2022-12-10T22:11:46.528Z,26.40
2022-12-10T22:13:57.689Z,28.08
2022-12-10T22:16:05.857Z,28.42
2022-12-10T22:18:17.097Z,25.30
2022-12-10T22:20:25.305Z,27.80
2022-12-10T22:22:33.703Z,29.02
2022-12-10T22:24:41.607Z,29.25
2022-12-10T22:26:49.387Z,28.67
2022-12-10T22:28:57.495Z,29.35
2022-12-10T22:31:09.723Z,27.90
2022-12-10T22:33:20.159Z,28.80
2022-12-10T22:35:28.482Z,25.90
2022-12-10T22:37:36.332Z,28.67
2022-12-10T22:39:44.256Z,25.60
2022-12-10T22:41:52.235Z,27.70
2022-12-10T22:44:01.516Z,26.08
2022-12-10T22:46:10.687Z,24.75
2022-12-10T22:48:22.281Z,28.77
2022-12-10T22:50:30.402Z,25.38
2022-12-10T22:52:38.447Z,24.55
2022-12-10T22:54:46.404Z,26.30
2022-12-10T22:56:54.533Z,24.50
2022-12-10T22:59:02.402Z,24.67
2022-12-10T23:01:11.966Z,27.70
2022-12-10T23:03:22.725Z,26.45
2022-12-10T23:05:30.927Z,22.95
2022-12-10T23:07:39.071Z,23.80
2022-12-10T23:09:47.634Z,19.83
2022-12-10T23:12:08.443Z,21.30
2022-12-10T23:14:16.443Z,19.80
2022-12-10T23:16:35.222Z,25.88
2022-12-10T23:18:50.341Z,21.80
2022-12-10T23:20:59.224Z,22.50
2022-12-10T23:23:09.229Z,23.35
2022-12-10T23:25:26.191Z,22.05
2022-12-10T23:28:01.545Z,21.60
2022-12-10T23:30:15.231Z,21.48
2022-12-10T23:32:41.409Z,22.10
2022-12-10T23:34:51.913Z,22.38
2022-12-10T23:37:03.346Z,19.83
2022-12-10T23:39:11.258Z,20.13
2022-12-10T23:41:19.124Z,21.15
2022-12-10T23:43:26.976Z,23.95
2022-12-10T23:45:34.913Z,24.95
2022-12-10T23:47:42.764Z,25.20
2022-12-10T23:49:54.191Z,25.52
2022-12-10T23:52:09.159Z,23.25
2022-12-10T23:54:18.241Z,21.77
2022-12-10T23:56:26.056Z,23.92
2022-12-10T23:58:35.656Z,20.95
